Time;durP1;ratioP1;P1;durP2;ratioP2;P2;SDS_P1;SDS_P2;PMS_P1;PMS_P2;Temp;Humidity;BMP_temperature;BMP_pressure;BME280_temperature;BME280_humidity;BME280_pressure;Samples;Min_cycle;Max_cycle;Signal;HPM_P1;HPM_P2
2021/12/13 00:00:13;;;;;;;;;;;19.40;41.50;;;;;;5157594;27;19926;-54
2021/12/13 00:02:43;;;;;;;;;;;19.40;41.50;;;;;;5157632;27;19921;-54
2021/12/13 00:05:08;;;;;;;;;;;19.30;41.50;;;;;;5157932;27;19914;-54
2021/12/13 00:07:37;;;;;;;;;;;19.40;41.50;;;;;;5157743;27;19915;-51
2021/12/13 00:10:14;;;;;;;;;;;19.30;41.50;;;;;;5157593;27;19907;-50
2021/12/13 00:12:42;;;;;;;;;;;19.40;41.50;;;;;;5157765;27;19911;-51
2021/12/13 00:15:11;;;;;;;;;;;19.40;41.60;;;;;;5157262;27;20430;-52
2021/12/13 00:17:45;;;;;;;;;;;19.40;41.70;;;;;;5157176;27;19911;-53
2021/12/13 00:20:28;;;;;;;;;;;19.30;41.60;;;;;;5157521;27;19911;-51
2021/12/13 00:22:55;;;;;;;;;;;19.30;41.60;;;;;;5157480;27;20259;-52
2021/12/13 00:25:23;;;;;;;;;;;19.30;41.60;;;;;;5157047;27;19907;-50
2021/12/13 00:27:52;;;;;;;;;;;19.30;41.60;;;;;;5157094;27;20354;-52
2021/12/13 00:30:20;;;;;;;;;;;19.30;41.60;;;;;;5157400;27;19914;-54
2021/12/13 00:33:10;;;;;;;;;;;19.30;41.60;;;;;;5157125;27;19928;-55
2021/12/13 00:35:50;;;;;;;;;;;19.30;41.70;;;;;;5157064;27;19915;-51
2021/12/13 00:38:18;;;;;;;;;;;19.30;41.70;;;;;;5156279;27;19915;-55
2021/12/13 00:40:47;;;;;;;;;;;19.30;41.70;;;;;;5156857;27;20243;-52
2021/12/13 00:43:35;;;;;;;;;;;19.30;41.70;;;;;;5156931;27;19997;-52
2021/12/13 00:46:05;;;;;;;;;;;19.30;41.70;;;;;;5142960;27;20013;-51
2021/12/13 00:48:31;;;;;;;;;;;19.30;41.70;;;;;;5156831;27;19911;-54
2021/12/13 00:50:59;;;;;;;;;;;19.30;41.70;;;;;;5156944;27;19942;-54
2021/12/13 00:53:25;;;;;;;;;;;19.30;41.80;;;;;;5156590;27;19914;-56
2021/12/13 00:55:51;;;;;;;;;;;19.30;41.80;;;;;;5156674;27;19915;-52
2021/12/13 00:58:21;;;;;;;;;;;19.30;41.80;;;;;;5156508;27;19907;-50
2021/12/13 01:00:52;;;;;;;;;;;19.30;41.80;;;;;;5156427;27;19919;-51
2021/12/13 01:03:20;;;;;;;;;;;19.30;41.80;;;;;;5156536;27;20290;-50
2021/12/13 01:05:48;;;;;;;;;;;19.30;41.80;;;;;;5156646;27;19907;-51
2021/12/13 01:08:32;;;;;;;;;;;19.30;41.80;;;;;;5156333;27;20449;-52
2021/12/13 01:11:11;;;;;;;;;;;19.30;41.80;;;;;;5156374;27;19914;-53
2021/12/13 01:13:40;;;;;;;;;;;19.30;41.90;;;;;;5156298;27;19915;-53
2021/12/13 01:16:31;;;;;;;;;;;19.30;41.90;;;;;;5156513;27;20028;-53
2021/12/13 01:19:24;;;;;;;;;;;19.20;41.80;;;;;;5156219;27;19907;-50
2021/12/13 01:21:56;;;;;;;;;;;19.20;41.80;;;;;;5155515;27;20346;-55
2021/12/13 01:24:53;;;;;;;;;;;19.20;41.90;;;;;;5156339;27;19907;-53
2021/12/13 01:27:09;;;;;;;;;;;19.30;41.80;;;;;;5155914;27;20436;-53
2021/12/13 01:29:34;;;;;;;;;;;19.20;41.90;;;;;;5155909;27;19990;-54
2021/12/13 01:32:05;;;;;;;;;;;19.20;41.90;;;;;;5155874;27;19918;-56
2021/12/13 01:34:32;;;;;;;;;;;19.20;41.90;;;;;;5155649;27;19919;-51
2021/12/13 01:37:08;;;;;;;;;;;19.20;42.00;;;;;;5156041;27;19907;-55
2021/12/13 01:39:34;;;;;;;;;;;19.20;42.00;;;;;;5155927;27;19914;-52
2021/12/13 01:42:03;;;;;;;;;;;19.20;42.00;;;;;;5155971;27;19918;-54
2021/12/13 01:44:31;;;;;;;;;;;19.30;42.00;;;;;;5155549;27;20369;-51
2021/12/13 01:47:03;;;;;;;;;;;19.20;42.00;;;;;;5155510;27;20394;-53
2021/12/13 01:49:43;;;;;;;;;;;19.20;42.00;;;;;;5155655;27;19907;-50
2021/12/13 01:52:19;;;;;;;;;;;19.20;42.00;;;;;;5155188;27;19998;-53
2021/12/13 01:54:45;;;;;;;;;;;19.20;42.00;;;;;;5155259;27;20279;-52
2021/12/13 01:59:56;;;;;;;;;;;19.20;42.00;;;;;;5155436;27;19923;-55
2021/12/13 02:02:42;;;;;;;;;;;19.20;42.10;;;;;;5155510;27;19929;-54
2021/12/13 02:05:13;;;;;;;;;;;19.20;42.00;;;;;;5155642;27;19907;-53
2021/12/13 02:07:49;;;;;;;;;;;19.20;42.10;;;;;;5155265;27;19907;-53
2021/12/13 02:10:35;;;;;;;;;;;19.20;42.10;;;;;;5155603;27;19907;-53
2021/12/13 02:13:05;;;;;;;;;;;19.20;42.10;;;;;;5154589;27;19911;-52
2021/12/13 02:18:19;;;;;;;;;;;19.20;42.10;;;;;;5155554;27;19962;-52
2021/12/13 02:20:47;;;;;;;;;;;19.20;42.10;;;;;;5155292;27;19960;-52
2021/12/13 02:23:13;;;;;;;;;;;19.20;42.10;;;;;;5155324;27;19928;-55
2021/12/13 02:25:41;;;;;;;;;;;19.20;42.10;;;;;;5155365;27;20311;-51
2021/12/13 02:28:15;;;;;;;;;;;19.20;42.20;;;;;;5155074;27;19908;-52
2021/12/13 02:30:46;;;;;;;;;;;19.20;42.20;;;;;;5154969;27;20358;-54
2021/12/13 02:33:14;;;;;;;;;;;19.20;42.20;;;;;;5155242;27;19931;-56
2021/12/13 02:35:42;;;;;;;;;;;19.20;42.20;;;;;;5154916;27;19915;-52
2021/12/13 02:38:09;;;;;;;;;;;19.20;42.10;;;;;;5155067;27;20003;-50
2021/12/13 02:40:35;;;;;;;;;;;19.20;42.20;;;;;;5155177;27;19915;-51
2021/12/13 02:43:01;;;;;;;;;;;19.20;42.20;;;;;;5154930;27;20370;-50
2021/12/13 02:45:29;;;;;;;;;;;19.20;42.20;;;;;;5154906;27;20370;-53
2021/12/13 02:47:58;;;;;;;;;;;19.20;42.20;;;;;;5154868;27;20374;-52
2021/12/13 02:50:30;;;;;;;;;;;19.20;42.20;;;;;;5154900;27;19907;-52
2021/12/13 02:52:57;;;;;;;;;;;19.20;42.20;;;;;;5154955;27;19994;-51
2021/12/13 02:55:28;;;;;;;;;;;19.20;42.20;;;;;;5154689;27;20010;-51
2021/12/13 02:57:55;;;;;;;;;;;19.20;42.20;;;;;;5155020;27;19911;-50
2021/12/13 03:00:25;;;;;;;;;;;19.20;42.20;;;;;;5154682;27;20022;-54
2021/12/13 03:02:52;;;;;;;;;;;19.20;42.20;;;;;;5157612;27;19918;-51
2021/12/13 03:05:38;;;;;;;;;;;19.20;42.30;;;;;;5158676;27;20354;-54
2021/12/13 03:08:06;;;;;;;;;;;19.20;42.30;;;;;;5158864;27;19911;-56
2021/12/13 03:10:33;;;;;;;;;;;19.20;42.30;;;;;;5158852;27;19907;-51
2021/12/13 03:12:59;;;;;;;;;;;19.20;42.30;;;;;;5158536;27;19914;-52
2021/12/13 03:15:26;;;;;;;;;;;19.20;42.30;;;;;;5158437;27;19915;-51
2021/12/13 03:17:57;;;;;;;;;;;19.20;42.30;;;;;;5158493;27;20285;-52
2021/12/13 03:20:33;;;;;;;;;;;19.20;42.30;;;;;;5158778;27;19922;-51
2021/12/13 03:23:17;;;;;;;;;;;19.20;42.30;;;;;;5158609;27;19960;-51
2021/12/13 03:25:58;;;;;;;;;;;19.20;42.30;;;;;;5158513;27;19907;-52
2021/12/13 03:28:39;;;;;;;;;;;19.20;42.40;;;;;;5158435;27;19907;-52
2021/12/13 03:31:09;;;;;;;;;;;19.20;42.40;;;;;;5158292;27;19907;-53
2021/12/13 03:33:38;;;;;;;;;;;19.20;42.30;;;;;;5158351;27;19911;-51
2021/12/13 03:36:09;;;;;;;;;;;19.20;42.40;;;;;;5158433;27;19964;-53
2021/12/13 03:38:40;;;;;;;;;;;19.20;42.40;;;;;;5158402;27;19911;-54
2021/12/13 03:41:11;;;;;;;;;;;19.20;42.30;;;;;;5158109;27;19953;-52
2021/12/13 03:43:40;;;;;;;;;;;19.20;42.40;;;;;;5158047;27;19908;-50
2021/12/13 03:46:07;;;;;;;;;;;19.20;42.40;;;;;;5157838;27;19907;-55
2021/12/13 03:48:34;;;;;;;;;;;19.20;42.40;;;;;;5157865;27;20427;-51
2021/12/13 03:51:02;;;;;;;;;;;19.20;42.40;;;;;;5157999;27;19914;-51
2021/12/13 03:53:28;;;;;;;;;;;19.20;42.40;;;;;;5157995;27;20018;-53
2021/12/13 03:55:59;;;;;;;;;;;19.20;42.40;;;;;;5157714;27;19911;-52
2021/12/13 03:58:24;;;;;;;;;;;19.20;42.40;;;;;;5157704;27;19907;-52
2021/12/13 04:00:52;;;;;;;;;;;19.20;42.40;;;;;;5157523;27;20442;-51
2021/12/13 04:03:19;;;;;;;;;;;19.20;42.40;;;;;;5157590;27;20408;-50
2021/12/13 04:05:45;;;;;;;;;;;19.20;42.50;;;;;;5157462;27;19907;-50
2021/12/13 04:08:11;;;;;;;;;;;19.20;42.40;;;;;;5157549;27;19919;-50
2021/12/13 04:10:42;;;;;;;;;;;19.20;42.40;;;;;;5157164;27;19907;-51
2021/12/13 04:13:12;;;;;;;;;;;19.20;42.40;;;;;;5156616;27;20392;-50
2021/12/13 04:15:53;;;;;;;;;;;19.20;42.50;;;;;;5157842;27;19915;-50
2021/12/13 04:18:29;;;;;;;;;;;19.20;42.40;;;;;;5157349;27;19914;-50
2021/12/13 04:21:02;;;;;;;;;;;19.20;42.50;;;;;;5157306;27;19907;-51
2021/12/13 04:23:28;;;;;;;;;;;19.10;42.50;;;;;;5157544;27;19930;-52
2021/12/13 04:25:53;;;;;;;;;;;19.20;42.50;;;;;;5157400;27;20354;-54
2021/12/13 04:28:24;;;;;;;;;;;19.20;42.50;;;;;;5157125;27;19931;-52
2021/12/13 04:31:01;;;;;;;;;;;19.20;42.50;;;;;;5138518;27;19907;-51
2021/12/13 04:33:31;;;;;;;;;;;19.20;42.50;;;;;;5157125;27;19907;-53
2021/12/13 04:36:00;;;;;;;;;;;19.10;42.50;;;;;;5157185;27;19911;-52
2021/12/13 04:38:36;;;;;;;;;;;19.20;42.50;;;;;;5156926;27;19907;-51
2021/12/13 04:41:02;;;;;;;;;;;19.20;42.50;;;;;;5157009;27;20274;-56
2021/12/13 04:43:27;;;;;;;;;;;19.20;42.50;;;;;;5156917;27;19930;-56
2021/12/13 04:45:59;;;;;;;;;;;19.20;42.50;;;;;;5157097;27;20270;-50
2021/12/13 04:48:27;;;;;;;;;;;19.10;42.60;;;;;;5156943;27;19908;-54
2021/12/13 04:50:58;;;;;;;;;;;19.20;42.50;;;;;;5156968;27;19915;-51
2021/12/13 04:53:26;;;;;;;;;;;19.20;42.50;;;;;;5156858;27;20006;-51
2021/12/13 04:55:53;;;;;;;;;;;19.10;42.60;;;;;;5156878;27;19915;-54
2021/12/13 04:58:18;;;;;;;;;;;19.20;42.60;;;;;;5156741;27;19950;-55
2021/12/13 05:00:46;;;;;;;;;;;19.20;42.60;;;;;;5156278;27;19919;-54
2021/12/13 05:03:13;;;;;;;;;;;19.20;42.60;;;;;;5156375;27;19907;-53
2021/12/13 05:05:39;;;;;;;;;;;19.20;42.60;;;;;;5156231;27;19959;-55
2021/12/13 05:08:07;;;;;;;;;;;19.10;42.60;;;;;;5156787;27;20294;-51
2021/12/13 05:10:33;;;;;;;;;;;19.20;42.60;;;;;;5137943;27;19915;-55
2021/12/13 05:13:08;;;;;;;;;;;19.10;42.60;;;;;;5156265;27;19907;-51
2021/12/13 05:15:34;;;;;;;;;;;19.20;42.60;;;;;;5156089;27;19919;-50
2021/12/13 05:18:02;;;;;;;;;;;19.20;42.60;;;;;;5156318;27;20310;-54
2021/12/13 05:20:32;;;;;;;;;;;19.20;42.60;;;;;;5156434;27;19914;-50
2021/12/13 05:23:02;;;;;;;;;;;19.20;42.50;;;;;;5156474;27;19914;-56
2021/12/13 05:25:33;;;;;;;;;;;19.30;42.60;;;;;;5155800;27;19907;-55
2021/12/13 05:28:14;;;;;;;;;;;19.30;42.50;;;;;;5156227;27;19907;-53
2021/12/13 05:30:48;;;;;;;;;;;19.30;42.50;;;;;;5156236;27;19907;-53
2021/12/13 05:33:14;;;;;;;;;;;19.30;42.50;;;;;;5155803;27;20002;-55
2021/12/13 05:35:43;;;;;;;;;;;19.40;42.50;;;;;;5155815;27;19915;-51
2021/12/13 05:38:10;;;;;;;;;;;19.40;42.40;;;;;;5155985;27;19907;-53
2021/12/13 05:40:36;;;;;;;;;;;19.40;42.40;;;;;;5155975;27;19908;-56
2021/12/13 05:43:11;;;;;;;;;;;19.50;42.40;;;;;;5155896;27;20346;-55
2021/12/13 05:45:39;;;;;;;;;;;19.50;42.40;;;;;;5155665;27;20387;-49
2021/12/13 05:48:07;;;;;;;;;;;19.50;42.40;;;;;;5155632;27;19938;-50
2021/12/13 05:50:34;;;;;;;;;;;19.50;42.40;;;;;;5155820;27;19951;-52
2021/12/13 05:53:02;;;;;;;;;;;19.50;42.30;;;;;;5155471;27;20367;-55
2021/12/13 05:55:28;;;;;;;;;;;19.50;42.30;;;;;;5155555;27;19961;-55
2021/12/13 05:57:54;;;;;;;;;;;19.50;42.30;;;;;;5155542;27;19914;-53
2021/12/13 06:00:19;;;;;;;;;;;19.50;42.30;;;;;;5155136;27;19919;-51
2021/12/13 06:03:03;;;;;;;;;;;19.50;42.30;;;;;;5155612;27;19916;-55
2021/12/13 06:05:31;;;;;;;;;;;19.50;42.30;;;;;;5155253;27;19942;-53
2021/12/13 06:07:58;;;;;;;;;;;19.50;42.30;;;;;;5155099;27;19911;-54
2021/12/13 06:10:26;;;;;;;;;;;19.60;42.30;;;;;;5155282;27;19907;-50
2021/12/13 06:12:54;;;;;;;;;;;19.50;42.30;;;;;;5155419;27;19910;-50
2021/12/13 06:15:20;;;;;;;;;;;19.60;42.30;;;;;;5155127;27;19922;-49
2021/12/13 06:17:48;;;;;;;;;;;19.60;42.40;;;;;;5154932;27;19907;-55
2021/12/13 06:20:19;;;;;;;;;;;19.50;42.30;;;;;;5155248;27;19911;-54
2021/12/13 06:22:45;;;;;;;;;;;19.50;42.30;;;;;;5155105;27;19911;-54
2021/12/13 06:25:15;;;;;;;;;;;19.60;42.30;;;;;;5155062;27;20290;-51
2021/12/13 06:27:45;;;;;;;;;;;19.60;42.30;;;;;;5155095;27;19918;-51
2021/12/13 06:30:18;;;;;;;;;;;19.60;42.30;;;;;;5155119;27;20006;-52
2021/12/13 06:32:50;;;;;;;;;;;19.60;42.30;;;;;;5154996;27;19914;-50
2021/12/13 06:35:30;;;;;;;;;;;19.60;42.40;;;;;;5154998;27;19965;-49
2021/12/13 06:37:57;;;;;;;;;;;19.60;42.40;;;;;;5157971;27;19907;-51
2021/12/13 06:40:27;;;;;;;;;;;19.60;42.30;;;;;;5159286;27;19907;-50
2021/12/13 06:42:54;;;;;;;;;;;19.60;42.30;;;;;;5159195;27;19914;-50
2021/12/13 06:45:22;;;;;;;;;;;19.60;42.40;;;;;;5159418;27;19995;-53
2021/12/13 06:47:52;;;;;;;;;;;19.60;42.40;;;;;;5159249;27;19908;-50
2021/12/13 06:50:19;;;;;;;;;;;19.60;42.40;;;;;;5158979;27;19960;-55
2021/12/13 06:52:46;;;;;;;;;;;19.60;42.40;;;;;;5158879;27;19959;-51
2021/12/13 06:55:13;;;;;;;;;;;19.60;42.40;;;;;;5158812;27;20021;-54
2021/12/13 06:57:40;;;;;;;;;;;19.60;42.40;;;;;;5159132;27;19914;-54
2021/12/13 07:00:09;;;;;;;;;;;19.60;42.40;;;;;;5158806;27;19919;-58
2021/12/13 07:02:40;;;;;;;;;;;19.70;42.40;;;;;;5159045;27;19911;-51
2021/12/13 07:05:09;;;;;;;;;;;19.70;42.40;;;;;;5158707;27;20324;-52
2021/12/13 07:07:39;;;;;;;;;;;19.70;42.40;;;;;;5146928;27;19968;-52
2021/12/13 07:10:09;;;;;;;;;;;19.10;45.50;;;;;;5136250;27;19994;-55
2021/12/13 07:12:42;;;;;;;;;;;18.20;48.30;;;;;;5139028;27;19994;-65
2021/12/13 07:15:20;;;;;;;;;;;18.20;48.50;;;;;;5135985;27;19981;-64
2021/12/13 07:17:59;;;;;;;;;;;18.20;48.70;;;;;;5134448;27;19908;-67
2021/12/13 07:20:24;;;;;;;;;;;18.10;49.20;;;;;;5118256;27;19907;-65
2021/12/13 07:22:55;;;;;;;;;;;18.00;49.70;;;;;;5136789;27;19968;-65
2021/12/13 07:25:22;;;;;;;;;;;17.80;50.50;;;;;;5141807;27;19911;-66
2021/12/13 07:27:49;;;;;;;;;;;17.90;50.20;;;;;;5157615;27;19907;-66
2021/12/13 07:30:18;;;;;;;;;;;17.80;50.40;;;;;;5157825;27;20269;-65
2021/12/13 07:32:58;;;;;;;;;;;17.80;50.70;;;;;;5157383;27;20018;-64
2021/12/13 07:35:24;;;;;;;;;;;17.90;50.40;;;;;;5150800;27;19915;-65
2021/12/13 07:38:15;;;;;;;;;;;18.40;48.10;;;;;;5137312;27;19915;-66
2021/12/13 07:40:42;;;;;;;;;;;18.80;47.00;;;;;;5131111;27;19918;-65
2021/12/13 07:43:11;;;;;;;;;;;19.00;46.10;;;;;;5117846;27;19908;-65
2021/12/13 07:45:53;;;;;;;;;;;19.10;45.30;;;;;;5134719;27;19908;-66
2021/12/13 07:48:20;;;;;;;;;;;19.20;45.10;;;;;;5116545;27;20278;-63
2021/12/13 07:50:58;;;;;;;;;;;19.40;44.90;;;;;;5136799;27;19908;-65
2021/12/13 07:53:25;;;;;;;;;;;19.40;44.90;;;;;;5136652;27;19908;-65
2021/12/13 07:55:51;;;;;;;;;;;19.50;44.70;;;;;;5136193;27;19999;-63
2021/12/13 07:58:31;;;;;;;;;;;19.50;44.50;;;;;;5136381;27;19961;-63
2021/12/13 08:01:05;;;;;;;;;;;19.50;44.40;;;;;;5136009;27;19919;-64
2021/12/13 08:03:31;;;;;;;;;;;19.50;44.40;;;;;;5136132;27;19911;-65
2021/12/13 08:06:04;;;;;;;;;;;19.60;44.30;;;;;;5135970;27;20049;-63
2021/12/13 08:08:32;;;;;;;;;;;19.60;44.40;;;;;;5136514;27;19953;-64
2021/12/13 08:10:59;;;;;;;;;;;19.60;44.20;;;;;;5136163;27;20359;-63
2021/12/13 08:13:29;;;;;;;;;;;19.60;44.30;;;;;;5144553;27;19913;-63
2021/12/13 08:16:00;;;;;;;;;;;19.60;44.20;;;;;;5157086;27;20461;-66
2021/12/13 08:18:34;;;;;;;;;;;19.70;44.30;;;;;;5140206;27;19908;-68
2021/12/13 08:21:03;;;;;;;;;;;19.70;44.20;;;;;;5136160;27;20239;-67
2021/12/13 08:23:35;;;;;;;;;;;19.70;44.10;;;;;;5134454;27;20207;-66
2021/12/13 08:26:02;;;;;;;;;;;19.70;44.10;;;;;;5136170;27;19964;-65
2021/12/13 08:28:47;;;;;;;;;;;19.70;44.10;;;;;;5136292;27;19907;-65
2021/12/13 08:31:22;;;;;;;;;;;19.70;44.00;;;;;;5136184;27;19944;-66
2021/12/13 08:33:49;;;;;;;;;;;19.80;44.10;;;;;;5135694;27;20300;-68
2021/12/13 08:36:16;;;;;;;;;;;19.80;44.00;;;;;;5117784;27;19955;-69
2021/12/13 08:38:44;;;;;;;;;;;19.80;44.00;;;;;;5136369;27;19907;-68
2021/12/13 08:41:22;;;;;;;;;;;19.80;44.00;;;;;;5152337;27;19907;-68
2021/12/13 08:43:51;;;;;;;;;;;19.80;43.90;;;;;;5156141;27;19913;-67
2021/12/13 08:46:40;;;;;;;;;;;19.80;43.90;;;;;;5156316;27;20270;-66
2021/12/13 08:49:13;;;;;;;;;;;19.80;43.90;;;;;;5156496;27;20267;-69
2021/12/13 08:51:48;;;;;;;;;;;19.80;43.90;;;;;;5156458;27;19959;-68
2021/12/13 08:54:15;;;;;;;;;;;19.90;43.80;;;;;;5156009;27;19925;-66
2021/12/13 08:56:43;;;;;;;;;;;19.80;43.80;;;;;;5137541;27;19911;-65
2021/12/13 08:59:16;;;;;;;;;;;19.80;43.80;;;;;;5155756;27;19911;-66
2021/12/13 09:01:46;;;;;;;;;;;19.90;43.80;;;;;;5156084;27;19907;-66
2021/12/13 09:04:20;;;;;;;;;;;19.80;43.80;;;;;;5156435;27;19993;-66
2021/12/13 09:06:49;;;;;;;;;;;19.90;43.80;;;;;;5155470;27;19911;-67
2021/12/13 09:09:15;;;;;;;;;;;19.90;43.80;;;;;;5155870;27;19930;-72
2021/12/13 09:11:48;;;;;;;;;;;19.90;43.80;;;;;;5155974;27;20374;-68
2021/12/13 09:14:16;;;;;;;;;;;19.90;43.80;;;;;;5155836;27;19915;-68
2021/12/13 09:16:43;;;;;;;;;;;19.90;43.80;;;;;;5155235;27;19911;-67
2021/12/13 09:19:14;;;;;;;;;;;19.90;43.80;;;;;;5155473;27;20059;-67
2021/12/13 09:21:47;;;;;;;;;;;19.90;43.80;;;;;;5155453;27;19960;-70
2021/12/13 09:24:21;;;;;;;;;;;19.90;43.70;;;;;;5155580;27;19907;-68
2021/12/13 09:26:47;;;;;;;;;;;19.90;43.80;;;;;;5155147;27;19964;-69
2021/12/13 09:29:16;;;;;;;;;;;19.90;43.70;;;;;;5140638;27;19956;-72
2021/12/13 09:31:42;;;;;;;;;;;19.90;43.80;;;;;;5134353;27;19915;-67
2021/12/13 09:34:14;;;;;;;;;;;19.90;43.80;;;;;;5133540;27;19916;-67
2021/12/13 09:36:41;;;;;;;;;;;20.00;43.80;;;;;;5134912;27;19999;-67
2021/12/13 09:39:12;;;;;;;;;;;20.00;43.80;;;;;;5153830;27;20002;-67
2021/12/13 09:41:59;;;;;;;;;;;20.00;43.70;;;;;;5141396;27;19908;-66
2021/12/13 09:44:31;;;;;;;;;;;20.00;43.70;;;;;;5134892;27;20010;-64
2021/12/13 09:47:00;;;;;;;;;;;19.80;44.40;;;;;;5116128;27;19908;-66
2021/12/13 09:49:47;;;;;;;;;;;19.80;44.80;;;;;;5154550;27;19907;-67
2021/12/13 09:52:24;;;;;;;;;;;19.80;44.70;;;;;;5150874;27;19946;-65
2021/12/13 09:54:54;;;;;;;;;;;19.80;45.10;;;;;;5133395;27;20275;-65
2021/12/13 09:57:40;;;;;;;;;;;19.70;45.00;;;;;;5133498;27;19912;-66
2021/12/13 10:00:14;;;;;;;;;;;19.80;44.90;;;;;;5132709;27;19919;-63
2021/12/13 10:02:44;;;;;;;;;;;19.90;44.70;;;;;;5140864;27;19911;-64
2021/12/13 10:05:11;;;;;;;;;;;19.90;44.60;;;;;;5154269;27;19954;-63
2021/12/13 10:07:38;;;;;;;;;;;19.90;45.40;;;;;;5146480;27;19930;-64
2021/12/13 10:10:10;;;;;;;;;;;20.00;44.90;;;;;;5133440;27;19907;-64
2021/12/13 10:12:41;;;;;;;;;;;20.00;44.90;;;;;;5137726;27;19927;-66
2021/12/13 10:15:30;;;;;;;;;;;20.00;45.00;;;;;;5131963;27;19915;-66
2021/12/13 10:17:59;;;;;;;;;;;20.00;45.00;;;;;;5130370;27;19911;-66
2021/12/13 10:20:31;;;;;;;;;;;20.00;45.10;;;;;;5146686;27;20006;-64
2021/12/13 10:22:56;;;;;;;;;;;20.00;44.90;;;;;;5142385;27;19911;-67
2021/12/13 10:25:24;;;;;;;;;;;20.00;45.20;;;;;;5153595;27;19997;-66
2021/12/13 10:27:49;;;;;;;;;;;20.00;45.00;;;;;;5144116;27;19950;-64
2021/12/13 10:30:21;;;;;;;;;;;20.00;45.10;;;;;;5132551;27;19947;-66
2021/12/13 10:32:48;;;;;;;;;;;20.10;44.90;;;;;;5132491;28;19923;-63
2021/12/13 10:35:15;;;;;;;;;;;20.10;44.90;;;;;;5132749;28;20031;-62
2021/12/13 10:37:44;;;;;;;;;;;20.00;45.00;;;;;;5132459;28;19912;-66
2021/12/13 10:40:23;;;;;;;;;;;20.00;44.90;;;;;;5132393;28;20367;-63
2021/12/13 10:42:57;;;;;;;;;;;20.00;44.90;;;;;;5140726;27;20499;-65
2021/12/13 10:45:24;;;;;;;;;;;20.00;45.00;;;;;;5153253;27;19971;-64
2021/12/13 10:47:52;;;;;;;;;;;20.00;44.90;;;;;;5143836;27;19964;-65
2021/12/13 10:50:21;;;;;;;;;;;20.00;44.90;;;;;;5132492;28;20339;-64
2021/12/13 10:52:48;;;;;;;;;;;20.00;45.00;;;;;;5140558;27;20370;-63
2021/12/13 10:55:21;;;;;;;;;;;20.00;45.00;;;;;;5134785;27;19930;-65
2021/12/13 10:57:48;;;;;;;;;;;20.00;44.90;;;;;;5125976;28;19923;-68
2021/12/13 11:00:25;;;;;;;;;;;19.60;46.00;;;;;;5119751;28;19934;-66
2021/12/13 11:02:53;;;;;;;;;;;19.90;45.80;;;;;;5122028;27;19915;-67
2021/12/13 11:05:19;;;;;;;;;;;20.00;45.40;;;;;;5148419;27;19914;-64
2021/12/13 11:07:45;;;;;;;;;;;20.00;45.10;;;;;;5140115;27;19994;-65
2021/12/13 11:10:16;;;;;;;;;;;20.00;45.00;;;;;;5134307;27;21365;-68
2021/12/13 11:12:45;;;;;;;;;;;20.00;45.00;;;;;;5144597;27;19915;-65
2021/12/13 11:15:14;;;;;;;;;;;20.10;45.00;;;;;;5132704;28;19916;-65
2021/12/13 11:17:40;;;;;;;;;;;20.10;45.00;;;;;;5133174;27;19919;-68
2021/12/13 11:20:15;;;;;;;;;;;20.00;44.90;;;;;;5132259;28;20349;-66
2021/12/13 11:22:40;;;;;;;;;;;20.00;45.00;;;;;;5113912;27;19943;-66
2021/12/13 11:25:10;;;;;;;;;;;20.10;45.00;;;;;;5136292;27;19954;-65
2021/12/13 11:27:35;;;;;;;;;;;20.10;44.90;;;;;;5142564;27;19923;-67
2021/12/13 11:30:05;;;;;;;;;;;20.10;44.90;;;;;;5149946;27;19915;-66
2021/12/13 11:32:37;;;;;;;;;;;20.10;45.00;;;;;;5139983;27;19976;-67
2021/12/13 11:35:12;;;;;;;;;;;20.00;45.00;;;;;;5155889;27;19919;-66
2021/12/13 11:37:56;;;;;;;;;;;20.10;44.90;;;;;;5129296;27;20360;-68
2021/12/13 11:40:38;;;;;;;;;;;20.10;44.90;;;;;;5135598;27;19915;-68
2021/12/13 11:43:13;;;;;;;;;;;20.10;44.90;;;;;;5144574;27;19954;-68
2021/12/13 11:45:57;;;;;;;;;;;20.10;44.90;;;;;;5156163;27;19911;-69
2021/12/13 11:48:41;;;;;;;;;;;20.10;44.90;;;;;;5142067;27;19911;-70
2021/12/13 11:51:25;;;;;;;;;;;20.10;44.90;;;;;;5134932;27;19911;-69
2021/12/13 11:54:00;;;;;;;;;;;20.10;44.90;;;;;;5148169;27;19916;-68
2021/12/13 11:56:28;;;;;;;;;;;20.10;44.90;;;;;;5116535;27;20378;-70
2021/12/13 11:58:58;;;;;;;;;;;20.10;44.90;;;;;;5134149;27;19908;-68
2021/12/13 12:01:43;;;;;;;;;;;20.10;45.00;;;;;;5152403;27;20651;-69
2021/12/13 12:04:27;;;;;;;;;;;20.10;45.00;;;;;;5154268;27;19919;-68
2021/12/13 12:06:53;;;;;;;;;;;20.10;45.00;;;;;;5134628;27;19915;-69
2021/12/13 12:09:24;;;;;;;;;;;20.10;45.00;;;;;;5136704;27;19914;-67
2021/12/13 12:12:08;;;;;;;;;;;20.20;44.90;;;;;;5137855;27;19911;-69
2021/12/13 12:14:34;;;;;;;;;;;20.20;44.80;;;;;;5146272;27;20335;-70
2021/12/13 12:17:01;;;;;;;;;;;20.10;44.80;;;;;;5148794;27;20017;-67
2021/12/13 12:19:31;;;;;;;;;;;20.10;44.80;;;;;;5148404;27;20334;-70
2021/12/13 12:21:58;;;;;;;;;;;20.10;44.80;;;;;;5153628;27;20413;-69
2021/12/13 12:24:53;;;;;;;;;;;20.10;44.90;;;;;;5135753;27;19911;-66
2021/12/13 12:27:23;;;;;;;;;;;20.10;44.80;;;;;;5124590;27;19918;-65
2021/12/13 12:29:52;;;;;;;;;;;20.10;44.80;;;;;;5141967;27;20078;-69
2021/12/13 12:32:26;;;;;;;;;;;20.10;44.80;;;;;;5146835;27;19911;-69
2021/12/13 12:34:56;;;;;;;;;;;20.10;44.90;;;;;;5135883;27;19995;-68
2021/12/13 12:37:30;;;;;;;;;;;20.10;44.90;;;;;;5132080;27;20267;-71
2021/12/13 12:40:07;;;;;;;;;;;20.10;44.80;;;;;;5134944;27;19960;-71
2021/12/13 12:42:37;;;;;;;;;;;20.10;44.80;;;;;;5139436;27;19912;-66
2021/12/13 12:45:05;;;;;;;;;;;20.10;44.80;;;;;;5155311;27;20330;-67
2021/12/13 12:47:33;;;;;;;;;;;20.10;44.90;;;;;;5148664;27;19915;-69
2021/12/13 12:50:11;;;;;;;;;;;20.10;44.90;;;;;;5134958;27;19914;-68
2021/12/13 12:52:45;;;;;;;;;;;20.10;44.80;;;;;;5140844;27;20258;-68
2021/12/13 12:55:12;;;;;;;;;;;20.10;44.90;;;;;;5139822;27;19915;-69
2021/12/13 12:57:38;;;;;;;;;;;20.10;44.90;;;;;;5133589;27;19921;-68
2021/12/13 13:00:04;;;;;;;;;;;20.10;44.90;;;;;;5140696;27;19923;-69
2021/12/13 13:02:31;;;;;;;;;;;20.10;44.90;;;;;;5148564;27;20298;-67
2021/12/13 13:04:58;;;;;;;;;;;20.10;45.00;;;;;;5134829;27;19939;-68
2021/12/13 13:07:29;;;;;;;;;;;20.10;44.90;;;;;;5133093;27;19911;-65
2021/12/13 13:09:54;;;;;;;;;;;20.10;44.80;;;;;;5152550;27;19911;-67
2021/12/13 13:12:24;;;;;;;;;;;20.10;44.80;;;;;;5144392;27;19943;-68
2021/12/13 13:14:52;;;;;;;;;;;20.10;45.00;;;;;;5133297;27;19923;-66
2021/12/13 13:17:20;;;;;;;;;;;20.20;45.00;;;;;;5118135;27;19915;-68
2021/12/13 13:19:47;;;;;;;;;;;20.10;44.90;;;;;;5134666;27;19907;-68
2021/12/13 13:22:15;;;;;;;;;;;20.10;44.90;;;;;;5149252;27;19960;-69
2021/12/13 13:24:42;;;;;;;;;;;20.10;45.00;;;;;;5131711;27;20095;-70
2021/12/13 13:27:08;;;;;;;;;;;20.10;44.90;;;;;;5133334;27;19999;-70
2021/12/13 13:29:34;;;;;;;;;;;20.10;45.00;;;;;;5139763;27;19952;-70
2021/12/13 13:32:00;;;;;;;;;;;20.10;45.00;;;;;;5132744;27;19942;-69
2021/12/13 13:34:34;;;;;;;;;;;20.10;45.00;;;;;;5132875;27;19918;-65
2021/12/13 13:37:05;;;;;;;;;;;20.20;45.00;;;;;;5132805;27;19919;-65
2021/12/13 13:39:34;;;;;;;;;;;20.10;45.00;;;;;;5153778;27;19907;-66
2021/12/13 13:42:14;;;;;;;;;;;20.20;45.10;;;;;;5152737;27;19911;-66
2021/12/13 13:44:44;;;;;;;;;;;20.10;44.90;;;;;;5150755;27;19911;-67
2021/12/13 13:47:15;;;;;;;;;;;20.20;45.10;;;;;;5133122;27;19926;-66
2021/12/13 13:49:41;;;;;;;;;;;20.20;45.00;;;;;;5132318;27;19907;-67
2021/12/13 13:52:11;;;;;;;;;;;20.20;45.00;;;;;;5135055;27;20263;-65
2021/12/13 13:54:37;;;;;;;;;;;20.20;45.10;;;;;;5153787;27;19945;-66
2021/12/13 13:57:02;;;;;;;;;;;20.20;45.00;;;;;;5151844;27;20055;-64
2021/12/13 13:59:28;;;;;;;;;;;20.20;45.20;;;;;;5136731;27;19923;-62
2021/12/13 14:01:53;;;;;;;;;;;20.20;45.10;;;;;;5153073;27;19914;-66
2021/12/13 14:04:24;;;;;;;;;;;20.20;44.90;;;;;;5153728;27;19946;-65
2021/12/13 14:06:54;;;;;;;;;;;20.20;45.10;;;;;;5152662;27;19916;-64
2021/12/13 14:09:23;;;;;;;;;;;20.30;45.00;;;;;;5114536;27;19907;-64
2021/12/13 14:11:49;;;;;;;;;;;20.20;45.00;;;;;;5132598;27;19927;-64
2021/12/13 14:14:15;;;;;;;;;;;20.10;45.10;;;;;;5153405;27;19911;-65
2021/12/13 14:16:45;;;;;;;;;;;20.20;45.10;;;;;;5153580;27;20315;-64
2021/12/13 14:19:23;;;;;;;;;;;20.10;45.10;;;;;;5132943;27;20002;-64
2021/12/13 14:21:50;;;;;;;;;;;20.10;45.10;;;;;;5138364;27;19907;-64
2021/12/13 14:24:16;;;;;;;;;;;20.10;45.10;;;;;;5131920;27;19957;-65
2021/12/13 14:26:41;;;;;;;;;;;20.20;45.10;;;;;;5132980;27;19919;-65
2021/12/13 14:29:10;;;;;;;;;;;20.10;45.10;;;;;;5147867;27;19956;-64
2021/12/13 14:31:36;;;;;;;;;;;20.20;45.10;;;;;;5132736;28;19912;-64
2021/12/13 14:34:18;;;;;;;;;;;20.10;45.10;;;;;;5151400;27;19915;-63
2021/12/13 14:36:44;;;;;;;;;;;20.10;45.10;;;;;;5153777;27;19918;-63
2021/12/13 14:39:11;;;;;;;;;;;20.10;45.10;;;;;;5114804;28;19911;-64
2021/12/13 14:41:42;;;;;;;;;;;20.10;45.10;;;;;;5132564;28;19915;-64